sensor_id;sensor_type;location;lat;lon;timestamp;temperature;humidity
45060;DHT22;30799;49.060;9.312;2023-04-03T00:01:51;19.90;58.40
45060;DHT22;30799;49.060;9.312;2023-04-03T00:04:17;19.90;58.50
45060;DHT22;30799;49.060;9.312;2023-04-03T00:06:44;19.90;58.50
45060;DHT22;30799;49.060;9.312;2023-04-03T00:09:11;19.80;58.50
45060;DHT22;30799;49.060;9.312;2023-04-03T00:11:38;19.80;58.40
45060;DHT22;30799;49.060;9.312;2023-04-03T00:14:05;19.80;58.40
45060;DHT22;30799;49.060;9.312;2023-04-03T00:16:32;19.80;58.40
45060;DHT22;30799;49.060;9.312;2023-04-03T00:18:58;19.80;58.40
45060;DHT22;30799;49.060;9.312;2023-04-03T00:21:25;19.90;58.50
45060;DHT22;30799;49.060;9.312;2023-04-03T00:23:52;19.80;58.40
45060;DHT22;30799;49.060;9.312;2023-04-03T00:26:19;19.80;58.40
45060;DHT22;30799;49.060;9.312;2023-04-03T00:28:47;19.80;58.40
45060;DHT22;30799;49.060;9.312;2023-04-03T00:31:16;19.90;58.40
45060;DHT22;30799;49.060;9.312;2023-04-03T00:33:43;19.90;58.40
45060;DHT22;30799;49.060;9.312;2023-04-03T00:36:10;19.80;58.30
45060;DHT22;30799;49.060;9.312;2023-04-03T00:38:37;19.90;58.40
45060;DHT22;30799;49.060;9.312;2023-04-03T00:41:04;19.90;58.40
45060;DHT22;30799;49.060;9.312;2023-04-03T00:43:31;19.90;58.30
45060;DHT22;30799;49.060;9.312;2023-04-03T00:45:59;19.90;58.40
45060;DHT22;30799;49.060;9.312;2023-04-03T00:48:30;19.80;58.40
45060;DHT22;30799;49.060;9.312;2023-04-03T00:50:58;19.90;58.30
45060;DHT22;30799;49.060;9.312;2023-04-03T00:53:29;19.90;58.30
45060;DHT22;30799;49.060;9.312;2023-04-03T00:55:58;19.80;58.30
45060;DHT22;30799;49.060;9.312;2023-04-03T00:58:32;19.80;58.30
45060;DHT22;30799;49.060;9.312;2023-04-03T01:01:04;19.80;58.30
45060;DHT22;30799;49.060;9.312;2023-04-03T01:03:32;19.80;58.20
45060;DHT22;30799;49.060;9.312;2023-04-03T01:05:59;19.90;58.30
45060;DHT22;30799;49.060;9.312;2023-04-03T01:08:25;19.80;58.30
45060;DHT22;30799;49.060;9.312;2023-04-03T01:10:52;19.90;58.30
45060;DHT22;30799;49.060;9.312;2023-04-03T01:13:28;19.90;58.30
45060;DHT22;30799;49.060;9.312;2023-04-03T01:15:55;19.80;58.20
45060;DHT22;30799;49.060;9.312;2023-04-03T01:18:24;19.80;58.20
45060;DHT22;30799;49.060;9.312;2023-04-03T01:24:05;19.90;58.30
45060;DHT22;30799;49.060;9.312;2023-04-03T01:26:34;19.90;58.30
45060;DHT22;30799;49.060;9.312;2023-04-03T01:29:02;19.80;58.20
45060;DHT22;30799;49.060;9.312;2023-04-03T01:34:02;19.90;58.20
45060;DHT22;30799;49.060;9.312;2023-04-03T01:36:31;19.90;58.20
45060;DHT22;30799;49.060;9.312;2023-04-03T01:38:59;19.90;58.20
45060;DHT22;30799;49.060;9.312;2023-04-03T01:41:26;19.80;58.20
45060;DHT22;30799;49.060;9.312;2023-04-03T01:43:53;19.80;58.10
45060;DHT22;30799;49.060;9.312;2023-04-03T01:46:20;19.80;58.10
45060;DHT22;30799;49.060;9.312;2023-04-03T01:48:47;19.90;58.20
45060;DHT22;30799;49.060;9.312;2023-04-03T01:51:14;19.90;58.10
45060;DHT22;30799;49.060;9.312;2023-04-03T01:53:41;19.90;58.20
45060;DHT22;30799;49.060;9.312;2023-04-03T01:56:08;19.90;58.10
45060;DHT22;30799;49.060;9.312;2023-04-03T01:58:35;19.80;58.10
45060;DHT22;30799;49.060;9.312;2023-04-03T02:01:02;19.80;58.10
45060;DHT22;30799;49.060;9.312;2023-04-03T02:03:29;19.80;58.10
45060;DHT22;30799;49.060;9.312;2023-04-03T02:05:56;19.80;58.10
45060;DHT22;30799;49.060;9.312;2023-04-03T02:08:23;19.80;58.10
45060;DHT22;30799;49.060;9.312;2023-04-03T02:10:49;19.80;58.10
45060;DHT22;30799;49.060;9.312;2023-04-03T02:13:17;19.90;58.10
45060;DHT22;30799;49.060;9.312;2023-04-03T02:15:44;19.80;58.10
45060;DHT22;30799;49.060;9.312;2023-04-03T02:18:12;19.80;58.00
45060;DHT22;30799;49.060;9.312;2023-04-03T02:20:38;19.80;58.00
45060;DHT22;30799;49.060;9.312;2023-04-03T02:23:05;19.80;58.00
45060;DHT22;30799;49.060;9.312;2023-04-03T02:25:32;19.80;58.00
45060;DHT22;30799;49.060;9.312;2023-04-03T02:28:01;19.80;58.00
45060;DHT22;30799;49.060;9.312;2023-04-03T02:30:27;19.80;58.10
45060;DHT22;30799;49.060;9.312;2023-04-03T02:32:54;19.80;58.00
45060;DHT22;30799;49.060;9.312;2023-04-03T02:35:21;19.80;58.00
45060;DHT22;30799;49.060;9.312;2023-04-03T02:37:48;19.80;58.00
45060;DHT22;30799;49.060;9.312;2023-04-03T02:40:15;19.90;58.00
45060;DHT22;30799;49.060;9.312;2023-04-03T02:42:42;19.80;58.00
45060;DHT22;30799;49.060;9.312;2023-04-03T02:45:09;19.80;58.00
45060;DHT22;30799;49.060;9.312;2023-04-03T02:47:35;19.80;57.90
45060;DHT22;30799;49.060;9.312;2023-04-03T02:50:02;19.90;58.00
45060;DHT22;30799;49.060;9.312;2023-04-03T02:52:29;19.80;57.90
45060;DHT22;30799;49.060;9.312;2023-04-03T02:54:55;19.90;57.90
45060;DHT22;30799;49.060;9.312;2023-04-03T02:57:22;19.90;58.00
45060;DHT22;30799;49.060;9.312;2023-04-03T02:59:49;19.80;57.90
45060;DHT22;30799;49.060;9.312;2023-04-03T03:02:16;19.80;57.90
45060;DHT22;30799;49.060;9.312;2023-04-03T03:04:42;19.80;57.90
45060;DHT22;30799;49.060;9.312;2023-04-03T03:07:09;19.80;57.90
45060;DHT22;30799;49.060;9.312;2023-04-03T03:09:36;19.80;57.90
45060;DHT22;30799;49.060;9.312;2023-04-03T03:12:03;19.80;57.90
45060;DHT22;30799;49.060;9.312;2023-04-03T03:14:29;19.90;57.90
45060;DHT22;30799;49.060;9.312;2023-04-03T03:16:56;19.80;57.80
45060;DHT22;30799;49.060;9.312;2023-04-03T03:19:23;19.80;57.90
45060;DHT22;30799;49.060;9.312;2023-04-03T03:21:49;19.80;57.80
45060;DHT22;30799;49.060;9.312;2023-04-03T03:24:16;19.80;57.80
45060;DHT22;30799;49.060;9.312;2023-04-03T03:26:43;19.80;57.80
45060;DHT22;30799;49.060;9.312;2023-04-03T03:29:10;19.80;57.90
45060;DHT22;30799;49.060;9.312;2023-04-03T03:31:36;19.80;57.80
45060;DHT22;30799;49.060;9.312;2023-04-03T03:34:03;19.80;57.80
45060;DHT22;30799;49.060;9.312;2023-04-03T03:36:30;19.80;57.80
45060;DHT22;30799;49.060;9.312;2023-04-03T03:38:57;19.80;57.80
45060;DHT22;30799;49.060;9.312;2023-04-03T03:41:23;19.80;57.80
45060;DHT22;30799;49.060;9.312;2023-04-03T03:43:50;19.80;57.80
45060;DHT22;30799;49.060;9.312;2023-04-03T03:46:17;19.80;57.80
45060;DHT22;30799;49.060;9.312;2023-04-03T03:48:44;19.80;57.80
45060;DHT22;30799;49.060;9.312;2023-04-03T03:51:10;19.90;57.80
45060;DHT22;30799;49.060;9.312;2023-04-03T03:53:37;19.80;57.70
45060;DHT22;30799;49.060;9.312;2023-04-03T03:56:04;19.80;57.80
45060;DHT22;30799;49.060;9.312;2023-04-03T03:58:32;19.80;57.80
45060;DHT22;30799;49.060;9.312;2023-04-03T04:01:06;19.80;57.70
45060;DHT22;30799;49.060;9.312;2023-04-03T04:03:33;19.80;57.80
45060;DHT22;30799;49.060;9.312;2023-04-03T04:06:00;19.80;57.70
45060;DHT22;30799;49.060;9.312;2023-04-03T04:08:26;19.80;57.70
45060;DHT22;30799;49.060;9.312;2023-04-03T04:10:53;19.80;57.70
45060;DHT22;30799;49.060;9.312;2023-04-03T04:13:19;19.80;57.70
45060;DHT22;30799;49.060;9.312;2023-04-03T04:15:46;19.80;57.70
45060;DHT22;30799;49.060;9.312;2023-04-03T04:18:13;19.80;57.70
45060;DHT22;30799;49.060;9.312;2023-04-03T04:20:39;19.80;57.70
45060;DHT22;30799;49.060;9.312;2023-04-03T04:23:06;19.80;57.70
45060;DHT22;30799;49.060;9.312;2023-04-03T04:25:33;19.80;57.70
45060;DHT22;30799;49.060;9.312;2023-04-03T04:27:59;19.80;57.60
45060;DHT22;30799;49.060;9.312;2023-04-03T04:30:26;19.80;57.70
45060;DHT22;30799;49.060;9.312;2023-04-03T04:32:53;19.80;57.80
45060;DHT22;30799;49.060;9.312;2023-04-03T04:35:20;19.80;57.70
45060;DHT22;30799;49.060;9.312;2023-04-03T04:37:47;19.80;57.70
45060;DHT22;30799;49.060;9.312;2023-04-03T04:40:14;19.80;57.70
45060;DHT22;30799;49.060;9.312;2023-04-03T04:42:41;19.80;57.70
45060;DHT22;30799;49.060;9.312;2023-04-03T04:45:07;19.80;57.70
45060;DHT22;30799;49.060;9.312;2023-04-03T04:47:34;19.80;57.70
45060;DHT22;30799;49.060;9.312;2023-04-03T04:50:01;19.80;57.70
45060;DHT22;30799;49.060;9.312;2023-04-03T04:52:28;19.80;57.70
45060;DHT22;30799;49.060;9.312;2023-04-03T04:54:54;19.80;57.70
45060;DHT22;30799;49.060;9.312;2023-04-03T04:57:21;19.30;46.80
45060;DHT22;30799;49.060;9.312;2023-04-03T04:59:47;17.00;40.60
45060;DHT22;30799;49.060;9.312;2023-04-03T05:02:14;15.70;39.70
45060;DHT22;30799;49.060;9.312;2023-04-03T05:04:40;15.00;40.20
45060;DHT22;30799;49.060;9.312;2023-04-03T05:07:07;14.50;40.90
45060;DHT22;30799;49.060;9.312;2023-04-03T05:09:35;14.20;41.30
45060;DHT22;30799;49.060;9.312;2023-04-03T05:12:02;14.00;41.30
45060;DHT22;30799;49.060;9.312;2023-04-03T05:14:29;13.90;41.50
45060;DHT22;30799;49.060;9.312;2023-04-03T05:16:56;13.70;41.60
45060;DHT22;30799;49.060;9.312;2023-04-03T05:19:24;13.60;41.90
45060;DHT22;30799;49.060;9.312;2023-04-03T05:21:50;13.40;41.50
45060;DHT22;30799;49.060;9.312;2023-04-03T05:24:17;13.30;41.90
45060;DHT22;30799;49.060;9.312;2023-04-03T05:29:11;14.70;42.90
45060;DHT22;30799;49.060;9.312;2023-04-03T05:31:37;15.80;44.10
45060;DHT22;30799;49.060;9.312;2023-04-03T05:34:04;16.60;45.80
45060;DHT22;30799;49.060;9.312;2023-04-03T05:36:31;17.10;46.70
45060;DHT22;30799;49.060;9.312;2023-04-03T05:38:58;17.50;48.60
45060;DHT22;30799;49.060;9.312;2023-04-03T05:41:24;17.70;50.00
45060;DHT22;30799;49.060;9.312;2023-04-03T05:43:51;17.80;50.60
45060;DHT22;30799;49.060;9.312;2023-04-03T05:46:19;17.90;50.70
45060;DHT22;30799;49.060;9.312;2023-04-03T05:48:47;18.00;51.60
45060;DHT22;30799;49.060;9.312;2023-04-03T05:51:34;18.00;51.40
45060;DHT22;30799;49.060;9.312;2023-04-03T05:57:08;18.20;52.30
45060;DHT22;30799;49.060;9.312;2023-04-03T05:59:35;18.30;51.90
45060;DHT22;30799;49.060;9.312;2023-04-03T06:02:01;18.20;51.90
45060;DHT22;30799;49.060;9.312;2023-04-03T06:04:29;18.40;51.90
45060;DHT22;30799;49.060;9.312;2023-04-03T06:06:57;18.40;52.00
45060;DHT22;30799;49.060;9.312;2023-04-03T06:09:26;18.40;51.90
45060;DHT22;30799;49.060;9.312;2023-04-03T06:11:53;18.40;52.10
45060;DHT22;30799;49.060;9.312;2023-04-03T06:14:20;18.50;52.10
45060;DHT22;30799;49.060;9.312;2023-04-03T06:16:46;18.50;52.10
45060;DHT22;30799;49.060;9.312;2023-04-03T06:19:13;18.50;52.20
45060;DHT22;30799;49.060;9.312;2023-04-03T06:21:40;18.60;52.30
45060;DHT22;30799;49.060;9.312;2023-04-03T06:24:07;18.60;52.40
45060;DHT22;30799;49.060;9.312;2023-04-03T06:26:34;18.60;52.50
45060;DHT22;30799;49.060;9.312;2023-04-03T06:29:01;18.60;52.70
45060;DHT22;30799;49.060;9.312;2023-04-03T06:31:29;18.70;53.00
45060;DHT22;30799;49.060;9.312;2023-04-03T06:33:56;18.70;53.20
45060;DHT22;30799;49.060;9.312;2023-04-03T06:36:22;18.70;53.20
45060;DHT22;30799;49.060;9.312;2023-04-03T06:38:49;18.70;53.30
45060;DHT22;30799;49.060;9.312;2023-04-03T06:41:16;18.70;53.50
45060;DHT22;30799;49.060;9.312;2023-04-03T06:43:44;18.80;53.60
45060;DHT22;30799;49.060;9.312;2023-04-03T06:46:18;18.80;53.90
45060;DHT22;30799;49.060;9.312;2023-04-03T06:48:46;18.80;54.20
45060;DHT22;30799;49.060;9.312;2023-04-03T06:51:27;18.80;54.40
45060;DHT22;30799;49.060;9.312;2023-04-03T06:53:56;18.80;54.40
45060;DHT22;30799;49.060;9.312;2023-04-03T06:56:24;18.80;54.40
45060;DHT22;30799;49.060;9.312;2023-04-03T06:58:52;18.90;54.50
45060;DHT22;30799;49.060;9.312;2023-04-03T07:01:21;18.90;54.50
45060;DHT22;30799;49.060;9.312;2023-04-03T07:03:48;18.90;54.60
45060;DHT22;30799;49.060;9.312;2023-04-03T07:06:16;18.90;54.60
45060;DHT22;30799;49.060;9.312;2023-04-03T07:08:43;18.90;54.50
45060;DHT22;30799;49.060;9.312;2023-04-03T07:11:12;18.90;54.50
45060;DHT22;30799;49.060;9.312;2023-04-03T07:13:39;18.90;54.50
45060;DHT22;30799;49.060;9.312;2023-04-03T07:16:07;18.90;54.50
45060;DHT22;30799;49.060;9.312;2023-04-03T07:18:34;18.90;54.40
45060;DHT22;30799;49.060;9.312;2023-04-03T07:21:01;19.00;54.40
45060;DHT22;30799;49.060;9.312;2023-04-03T07:23:28;19.00;54.50
45060;DHT22;30799;49.060;9.312;2023-04-03T07:25:55;19.00;54.40
45060;DHT22;30799;49.060;9.312;2023-04-03T07:28:22;19.00;54.50
45060;DHT22;30799;49.060;9.312;2023-04-03T07:31:01;19.00;54.60
45060;DHT22;30799;49.060;9.312;2023-04-03T07:33:28;19.00;54.50
45060;DHT22;30799;49.060;9.312;2023-04-03T07:35:55;19.00;54.50
45060;DHT22;30799;49.060;9.312;2023-04-03T07:38:22;19.00;54.50
45060;DHT22;30799;49.060;9.312;2023-04-03T07:40:50;19.00;54.50
45060;DHT22;30799;49.060;9.312;2023-04-03T07:43:18;19.00;54.50
45060;DHT22;30799;49.060;9.312;2023-04-03T07:45:44;19.00;54.40
45060;DHT22;30799;49.060;9.312;2023-04-03T07:48:12;19.00;54.40
45060;DHT22;30799;49.060;9.312;2023-04-03T07:50:43;19.10;54.50
45060;DHT22;30799;49.060;9.312;2023-04-03T07:53:10;19.10;54.50
45060;DHT22;30799;49.060;9.312;2023-04-03T07:55:37;19.10;54.60
45060;DHT22;30799;49.060;9.312;2023-04-03T07:58:10;19.00;54.60
45060;DHT22;30799;49.060;9.312;2023-04-03T08:00:38;19.10;54.60
45060;DHT22;30799;49.060;9.312;2023-04-03T08:03:06;19.10;54.60
45060;DHT22;30799;49.060;9.312;2023-04-03T08:05:40;19.10;54.50
45060;DHT22;30799;49.060;9.312;2023-04-03T08:08:08;19.10;54.50
45060;DHT22;30799;49.060;9.312;2023-04-03T08:10:35;19.10;54.50
45060;DHT22;30799;49.060;9.312;2023-04-03T08:13:02;19.10;54.50
45060;DHT22;30799;49.060;9.312;2023-04-03T08:15:30;19.10;54.50
45060;DHT22;30799;49.060;9.312;2023-04-03T08:17:57;19.10;54.50
45060;DHT22;30799;49.060;9.312;2023-04-03T08:20:25;19.10;54.50
45060;DHT22;30799;49.060;9.312;2023-04-03T08:22:52;19.10;54.40
45060;DHT22;30799;49.060;9.312;2023-04-03T08:25:18;19.10;54.40
45060;DHT22;30799;49.060;9.312;2023-04-03T08:27:45;19.10;54.40
45060;DHT22;30799;49.060;9.312;2023-04-03T08:30:12;19.20;54.50
45060;DHT22;30799;49.060;9.312;2023-04-03T08:32:40;19.20;54.50
45060;DHT22;30799;49.060;9.312;2023-04-03T08:35:09;19.20;54.50
45060;DHT22;30799;49.060;9.312;2023-04-03T08:37:36;19.20;54.50
45060;DHT22;30799;49.060;9.312;2023-04-03T08:40:06;19.20;54.50
45060;DHT22;30799;49.060;9.312;2023-04-03T08:42:38;19.20;54.40
45060;DHT22;30799;49.060;9.312;2023-04-03T08:48:33;19.20;54.50
45060;DHT22;30799;49.060;9.312;2023-04-03T08:50:56;19.20;54.50
45060;DHT22;30799;49.060;9.312;2023-04-03T08:53:29;19.20;54.50
45060;DHT22;30799;49.060;9.312;2023-04-03T08:55:58;19.20;54.40
45060;DHT22;30799;49.060;9.312;2023-04-03T08:58:30;19.20;54.50
45060;DHT22;30799;49.060;9.312;2023-04-03T09:01:20;19.20;54.40
45060;DHT22;30799;49.060;9.312;2023-04-03T09:03:48;19.20;54.40
45060;DHT22;30799;49.060;9.312;2023-04-03T09:06:22;19.20;54.50
45060;DHT22;30799;49.060;9.312;2023-04-03T09:09:15;19.20;54.50
45060;DHT22;30799;49.060;9.312;2023-04-03T09:15:02;19.20;54.50
45060;DHT22;30799;49.060;9.312;2023-04-03T09:17:35;19.20;54.50
45060;DHT22;30799;49.060;9.312;2023-04-03T09:22:46;19.20;54.30
45060;DHT22;30799;49.060;9.312;2023-04-03T09:25:22;19.20;54.50
45060;DHT22;30799;49.060;9.312;2023-04-03T09:27:50;19.20;54.40
45060;DHT22;30799;49.060;9.312;2023-04-03T09:30:20;19.20;54.40
45060;DHT22;30799;49.060;9.312;2023-04-03T09:32:50;19.20;54.40
45060;DHT22;30799;49.060;9.312;2023-04-03T09:38:22;19.20;54.30
45060;DHT22;30799;49.060;9.312;2023-04-03T09:41:02;19.20;54.30
45060;DHT22;30799;49.060;9.312;2023-04-03T09:43:32;19.20;54.30
45060;DHT22;30799;49.060;9.312;2023-04-03T09:46:33;19.20;54.30
45060;DHT22;30799;49.060;9.312;2023-04-03T09:49:02;19.30;54.40
45060;DHT22;30799;49.060;9.312;2023-04-03T09:51:32;19.30;54.40
45060;DHT22;30799;49.060;9.312;2023-04-03T09:53:59;19.30;54.40
45060;DHT22;30799;49.060;9.312;2023-04-03T09:56:28;19.30;54.40
45060;DHT22;30799;49.060;9.312;2023-04-03T10:04:13;19.30;54.30
45060;DHT22;30799;49.060;9.312;2023-04-03T10:06:45;19.30;54.40
45060;DHT22;30799;49.060;9.312;2023-04-03T10:09:20;19.30;54.30
45060;DHT22;30799;49.060;9.312;2023-04-03T10:12:08;19.30;54.30
45060;DHT22;30799;49.060;9.312;2023-04-03T10:14:53;19.30;54.30
45060;DHT22;30799;49.060;9.312;2023-04-03T10:20:20;19.30;54.30
45060;DHT22;30799;49.060;9.312;2023-04-03T10:23:14;19.30;54.90
45060;DHT22;30799;49.060;9.312;2023-04-03T10:25:55;19.30;54.30
45060;DHT22;30799;49.060;9.312;2023-04-03T10:31:37;19.30;54.00
45060;DHT22;30799;49.060;9.312;2023-04-03T10:34:21;19.30;54.10
45060;DHT22;30799;49.060;9.312;2023-04-03T10:45:28;19.30;54.20
45060;DHT22;30799;49.060;9.312;2023-04-03T10:56:13;19.30;54.20
45060;DHT22;30799;49.060;9.312;2023-04-03T10:58:54;19.30;54.30
45060;DHT22;30799;49.060;9.312;2023-04-03T11:01:26;19.30;54.90
45060;DHT22;30799;49.060;9.312;2023-04-03T11:03:57;19.30;54.10
45060;DHT22;30799;49.060;9.312;2023-04-03T11:06:28;19.30;54.30
45060;DHT22;30799;49.060;9.312;2023-04-03T11:09:03;19.30;54.10
45060;DHT22;30799;49.060;9.312;2023-04-03T11:11:36;19.30;54.00
45060;DHT22;30799;49.060;9.312;2023-04-03T11:14:32;19.30;54.10
45060;DHT22;30799;49.060;9.312;2023-04-03T11:17:11;19.30;54.10
45060;DHT22;30799;49.060;9.312;2023-04-03T11:22:57;19.30;53.90
45060;DHT22;30799;49.060;9.312;2023-04-03T11:25:26;19.30;54.00
45060;DHT22;30799;49.060;9.312;2023-04-03T11:27:58;19.30;53.90
45060;DHT22;30799;49.060;9.312;2023-04-03T11:30:30;19.30;54.60
45060;DHT22;30799;49.060;9.312;2023-04-03T11:35:32;19.30;53.90
45060;DHT22;30799;49.060;9.312;2023-04-03T11:38:01;19.30;53.90
45060;DHT22;30799;49.060;9.312;2023-04-03T11:40:31;19.30;53.80
45060;DHT22;30799;49.060;9.312;2023-04-03T11:45:29;19.30;53.90
45060;DHT22;30799;49.060;9.312;2023-04-03T11:48:44;19.30;53.80
45060;DHT22;30799;49.060;9.312;2023-04-03T11:50:50;19.30;54.00
45060;DHT22;30799;49.060;9.312;2023-04-03T11:53:28;19.30;53.80
45060;DHT22;30799;49.060;9.312;2023-04-03T11:56:00;19.30;53.70
45060;DHT22;30799;49.060;9.312;2023-04-03T11:58:28;19.30;53.90
45060;DHT22;30799;49.060;9.312;2023-04-03T12:01:09;19.30;53.80
45060;DHT22;30799;49.060;9.312;2023-04-03T12:11:26;19.30;53.90
45060;DHT22;30799;49.060;9.312;2023-04-03T12:16:32;19.30;53.90
45060;DHT22;30799;49.060;9.312;2023-04-03T12:19:32;19.30;53.50
45060;DHT22;30799;49.060;9.312;2023-04-03T12:22:13;19.30;53.70
45060;DHT22;30799;49.060;9.312;2023-04-03T12:24:44;19.30;53.90
45060;DHT22;30799;49.060;9.312;2023-04-03T12:27:28;19.30;53.90
45060;DHT22;30799;49.060;9.312;2023-04-03T12:30:07;19.30;53.80
45060;DHT22;30799;49.060;9.312;2023-04-03T12:32:57;19.30;54.00
45060;DHT22;30799;49.060;9.312;2023-04-03T12:36:10;19.30;53.80
45060;DHT22;30799;49.060;9.312;2023-04-03T12:41:27;19.30;53.90
45060;DHT22;30799;49.060;9.312;2023-04-03T12:44:44;19.30;53.80
45060;DHT22;30799;49.060;9.312;2023-04-03T12:46:45;19.30;53.90
45060;DHT22;30799;49.060;9.312;2023-04-03T12:49:37;19.30;53.80
45060;DHT22;30799;49.060;9.312;2023-04-03T12:52:16;19.30;53.70
45060;DHT22;30799;49.060;9.312;2023-04-03T12:54:46;19.30;53.70
45060;DHT22;30799;49.060;9.312;2023-04-03T12:57:21;19.30;53.60
45060;DHT22;30799;49.060;9.312;2023-04-03T12:59:50;19.30;53.20
45060;DHT22;30799;49.060;9.312;2023-04-03T13:02:25;19.30;53.30
45060;DHT22;30799;49.060;9.312;2023-04-03T13:04:55;19.30;53.80
45060;DHT22;30799;49.060;9.312;2023-04-03T13:07:28;19.30;53.20
45060;DHT22;30799;49.060;9.312;2023-04-03T13:10:19;19.30;53.50
45060;DHT22;30799;49.060;9.312;2023-04-03T13:12:52;19.30;53.50
45060;DHT22;30799;49.060;9.312;2023-04-03T13:15:26;19.30;53.70
45060;DHT22;30799;49.060;9.312;2023-04-03T13:17:53;19.30;52.90
45060;DHT22;30799;49.060;9.312;2023-04-03T13:20:29;19.30;53.10
45060;DHT22;30799;49.060;9.312;2023-04-03T13:25:30;19.30;53.10
45060;DHT22;30799;49.060;9.312;2023-04-03T13:27:59;19.30;53.40
45060;DHT22;30799;49.060;9.312;2023-04-03T13:30:39;19.30;53.20
45060;DHT22;30799;49.060;9.312;2023-04-03T13:33:21;19.30;53.30
45060;DHT22;30799;49.060;9.312;2023-04-03T13:35:59;19.30;53.40
45060;DHT22;30799;49.060;9.312;2023-04-03T13:38:29;19.30;53.20
45060;DHT22;30799;49.060;9.312;2023-04-03T13:41:04;19.30;53.50
45060;DHT22;30799;49.060;9.312;2023-04-03T13:43:34;19.30;53.40
45060;DHT22;30799;49.060;9.312;2023-04-03T13:48:44;19.30;53.50
45060;DHT22;30799;49.060;9.312;2023-04-03T13:56:40;19.30;53.00
45060;DHT22;30799;49.060;9.312;2023-04-03T14:01:48;19.30;52.90
45060;DHT22;30799;49.060;9.312;2023-04-03T14:06:45;19.30;52.80
45060;DHT22;30799;49.060;9.312;2023-04-03T14:09:13;19.30;53.40
45060;DHT22;30799;49.060;9.312;2023-04-03T14:11:41;19.30;53.50
45060;DHT22;30799;49.060;9.312;2023-04-03T14:14:17;19.30;52.90
45060;DHT22;30799;49.060;9.312;2023-04-03T14:16:51;19.30;53.10
45060;DHT22;30799;49.060;9.312;2023-04-03T14:19:28;19.30;52.50
45060;DHT22;30799;49.060;9.312;2023-04-03T14:21:56;19.30;52.60
45060;DHT22;30799;49.060;9.312;2023-04-03T14:24:23;19.30;52.70
45060;DHT22;30799;49.060;9.312;2023-04-03T14:26:52;19.30;52.70
45060;DHT22;30799;49.060;9.312;2023-04-03T14:29:19;19.30;52.70
45060;DHT22;30799;49.060;9.312;2023-04-03T14:31:48;19.30;52.70
45060;DHT22;30799;49.060;9.312;2023-04-03T14:34:18;19.30;52.60
45060;DHT22;30799;49.060;9.312;2023-04-03T14:36:45;19.30;53.10
45060;DHT22;30799;49.060;9.312;2023-04-03T14:39:17;19.30;52.70
45060;DHT22;30799;49.060;9.312;2023-04-03T14:41:44;19.30;52.60
45060;DHT22;30799;49.060;9.312;2023-04-03T14:44:11;19.30;53.00
45060;DHT22;30799;49.060;9.312;2023-04-03T14:46:41;19.30;52.80
45060;DHT22;30799;49.060;9.312;2023-04-03T14:49:26;19.30;52.50
45060;DHT22;30799;49.060;9.312;2023-04-03T14:51:54;19.30;52.50
45060;DHT22;30799;49.060;9.312;2023-04-03T14:54:22;19.30;52.80
45060;DHT22;30799;49.060;9.312;2023-04-03T14:56:54;19.30;52.80
45060;DHT22;30799;49.060;9.312;2023-04-03T14:59:22;19.30;52.50
45060;DHT22;30799;49.060;9.312;2023-04-03T15:01:49;19.30;52.80
45060;DHT22;30799;49.060;9.312;2023-04-03T15:04:20;19.40;53.20
45060;DHT22;30799;49.060;9.312;2023-04-03T15:06:48;19.40;53.20
45060;DHT22;30799;49.060;9.312;2023-04-03T15:09:26;19.30;53.20
45060;DHT22;30799;49.060;9.312;2023-04-03T15:11:54;19.40;53.20
45060;DHT22;30799;49.060;9.312;2023-04-03T15:14:21;19.30;52.00
45060;DHT22;30799;49.060;9.312;2023-04-03T15:17:04;19.40;52.50
45060;DHT22;30799;49.060;9.312;2023-04-03T15:19:40;19.40;53.10
45060;DHT22;30799;49.060;9.312;2023-04-03T15:22:12;19.40;53.20
45060;DHT22;30799;49.060;9.312;2023-04-03T15:24:39;19.40;53.20
45060;DHT22;30799;49.060;9.312;2023-04-03T15:27:06;19.40;53.30
45060;DHT22;30799;49.060;9.312;2023-04-03T15:29:33;19.40;53.30
45060;DHT22;30799;49.060;9.312;2023-04-03T15:32:00;19.40;53.20
45060;DHT22;30799;49.060;9.312;2023-04-03T15:34:27;19.40;52.60
45060;DHT22;30799;49.060;9.312;2023-04-03T15:36:54;19.40;52.90
45060;DHT22;30799;49.060;9.312;2023-04-03T15:39:21;19.40;53.00
45060;DHT22;30799;49.060;9.312;2023-04-03T15:41:49;19.40;46.50
45060;DHT22;30799;49.060;9.312;2023-04-03T15:44:18;18.60;36.90
45060;DHT22;30799;49.060;9.312;2023-04-03T15:46:46;17.60;34.60
45060;DHT22;30799;49.060;9.312;2023-04-03T15:49:13;17.10;34.60
45060;DHT22;30799;49.060;9.312;2023-04-03T15:51:40;17.20;37.90
45060;DHT22;30799;49.060;9.312;2023-04-03T15:54:07;17.70;38.90
45060;DHT22;30799;49.060;9.312;2023-04-03T15:56:34;18.20;40.00
45060;DHT22;30799;49.060;9.312;2023-04-03T15:59:00;18.50;41.50
45060;DHT22;30799;49.060;9.312;2023-04-03T16:01:27;18.70;43.00
45060;DHT22;30799;49.060;9.312;2023-04-03T16:03:54;18.90;43.50
45060;DHT22;30799;49.060;9.312;2023-04-03T16:06:21;18.90;43.90
45060;DHT22;30799;49.060;9.312;2023-04-03T16:08:49;19.00;44.10
45060;DHT22;30799;49.060;9.312;2023-04-03T16:11:16;19.10;43.70
45060;DHT22;30799;49.060;9.312;2023-04-03T16:13:43;19.10;44.40
45060;DHT22;30799;49.060;9.312;2023-04-03T16:16:09;19.20;44.90
45060;DHT22;30799;49.060;9.312;2023-04-03T16:18:36;18.40;33.90
45060;DHT22;30799;49.060;9.312;2023-04-03T16:21:03;18.40;38.30
45060;DHT22;30799;49.060;9.312;2023-04-03T16:23:32;18.70;40.60
45060;DHT22;30799;49.060;9.312;2023-04-03T16:25:58;18.90;40.80
45060;DHT22;30799;49.060;9.312;2023-04-03T16:28:25;19.00;42.20
45060;DHT22;30799;49.060;9.312;2023-04-03T16:30:52;19.10;43.10
45060;DHT22;30799;49.060;9.312;2023-04-03T16:33:19;19.20;43.80
45060;DHT22;30799;49.060;9.312;2023-04-03T16:35:48;19.20;44.50
45060;DHT22;30799;49.060;9.312;2023-04-03T16:38:16;19.20;44.60
45060;DHT22;30799;49.060;9.312;2023-04-03T16:40:42;19.30;44.90
45060;DHT22;30799;49.060;9.312;2023-04-03T16:43:09;19.30;45.50
45060;DHT22;30799;49.060;9.312;2023-04-03T16:45:37;19.30;45.90
45060;DHT22;30799;49.060;9.312;2023-04-03T16:48:04;19.30;46.20
45060;DHT22;30799;49.060;9.312;2023-04-03T16:50:31;19.40;46.50
45060;DHT22;30799;49.060;9.312;2023-04-03T16:52:59;19.40;46.70
45060;DHT22;30799;49.060;9.312;2023-04-03T16:55:25;19.40;46.90
45060;DHT22;30799;49.060;9.312;2023-04-03T16:57:52;19.40;47.20
45060;DHT22;30799;49.060;9.312;2023-04-03T17:00:21;19.50;47.40
45060;DHT22;30799;49.060;9.312;2023-04-03T17:02:48;19.40;47.50
45060;DHT22;30799;49.060;9.312;2023-04-03T17:05:15;19.40;47.60
45060;DHT22;30799;49.060;9.312;2023-04-03T17:07:42;19.50;47.80
45060;DHT22;30799;49.060;9.312;2023-04-03T17:10:09;19.50;47.90
45060;DHT22;30799;49.060;9.312;2023-04-03T17:12:36;19.50;47.90
45060;DHT22;30799;49.060;9.312;2023-04-03T17:15:03;19.50;47.90